sensor_id;sensor_type;location;lat;lon;timestamp;temperature;humidity
14172;DHT22;7165;52.388;4.928;2022-10-12T00:02:19;9.50;99.90
14172;DHT22;7165;52.388;4.928;2022-10-12T00:04:45;9.50;99.90
14172;DHT22;7165;52.388;4.928;2022-10-12T00:07:12;9.50;99.90
14172;DHT22;7165;52.388;4.928;2022-10-12T00:09:39;9.40;99.90
14172;DHT22;7165;52.388;4.928;2022-10-12T00:12:06;9.50;99.90
14172;DHT22;7165;52.388;4.928;2022-10-12T00:14:34;9.50;99.90
14172;DHT22;7165;52.388;4.928;2022-10-12T00:17:01;9.40;99.90
14172;DHT22;7165;52.388;4.928;2022-10-12T00:19:30;9.40;99.90
14172;DHT22;7165;52.388;4.928;2022-10-12T00:21:56;9.40;99.90
14172;DHT22;7165;52.388;4.928;2022-10-12T00:24:23;9.40;99.90
14172;DHT22;7165;52.388;4.928;2022-10-12T00:26:50;9.40;99.90
14172;DHT22;7165;52.388;4.928;2022-10-12T00:29:17;9.40;99.90
14172;DHT22;7165;52.388;4.928;2022-10-12T00:31:44;9.40;99.90
14172;DHT22;7165;52.388;4.928;2022-10-12T00:34:10;9.40;99.90
14172;DHT22;7165;52.388;4.928;2022-10-12T00:36:39;9.40;99.90
14172;DHT22;7165;52.388;4.928;2022-10-12T00:39:07;9.50;99.90
14172;DHT22;7165;52.388;4.928;2022-10-12T00:41:37;9.40;99.90
14172;DHT22;7165;52.388;4.928;2022-10-12T00:44:38;9.40;99.90
14172;DHT22;7165;52.388;4.928;2022-10-12T00:47:11;9.40;99.90
14172;DHT22;7165;52.388;4.928;2022-10-12T00:49:40;9.40;99.90
14172;DHT22;7165;52.388;4.928;2022-10-12T00:52:11;9.40;99.90
14172;DHT22;7165;52.388;4.928;2022-10-12T00:54:41;9.30;99.90
14172;DHT22;7165;52.388;4.928;2022-10-12T00:57:10;9.30;99.90
14172;DHT22;7165;52.388;4.928;2022-10-12T00:59:43;9.30;99.90
14172;DHT22;7165;52.388;4.928;2022-10-12T01:02:11;9.30;99.90
14172;DHT22;7165;52.388;4.928;2022-10-12T01:04:39;9.30;99.90
14172;DHT22;7165;52.388;4.928;2022-10-12T01:07:07;9.30;99.90
14172;DHT22;7165;52.388;4.928;2022-10-12T01:09:34;9.30;99.90
14172;DHT22;7165;52.388;4.928;2022-10-12T01:12:03;9.20;99.90
14172;DHT22;7165;52.388;4.928;2022-10-12T01:14:30;9.20;99.90
14172;DHT22;7165;52.388;4.928;2022-10-12T01:16:59;9.20;99.90
14172;DHT22;7165;52.388;4.928;2022-10-12T01:22:29;9.20;99.90
14172;DHT22;7165;52.388;4.928;2022-10-12T01:25:07;9.20;99.90
14172;DHT22;7165;52.388;4.928;2022-10-12T01:27:44;9.20;99.90
14172;DHT22;7165;52.388;4.928;2022-10-12T01:30:17;9.20;99.90
14172;DHT22;7165;52.388;4.928;2022-10-12T01:33:08;9.20;99.90
14172;DHT22;7165;52.388;4.928;2022-10-12T01:35:44;9.20;99.90
14172;DHT22;7165;52.388;4.928;2022-10-12T01:38:23;9.10;99.90
14172;DHT22;7165;52.388;4.928;2022-10-12T01:41:04;9.10;99.90
14172;DHT22;7165;52.388;4.928;2022-10-12T01:43:34;9.10;99.90
14172;DHT22;7165;52.388;4.928;2022-10-12T01:46:42;9.10;99.90
14172;DHT22;7165;52.388;4.928;2022-10-12T01:49:11;9.00;99.90
14172;DHT22;7165;52.388;4.928;2022-10-12T01:51:54;9.00;99.90
14172;DHT22;7165;52.388;4.928;2022-10-12T01:54:31;9.00;99.90
14172;DHT22;7165;52.388;4.928;2022-10-12T01:57:04;8.90;99.90
14172;DHT22;7165;52.388;4.928;2022-10-12T01:59:40;8.90;99.90
14172;DHT22;7165;52.388;4.928;2022-10-12T02:02:17;8.90;99.90
14172;DHT22;7165;52.388;4.928;2022-10-12T02:04:47;8.90;99.90
14172;DHT22;7165;52.388;4.928;2022-10-12T02:07:20;8.90;99.90
14172;DHT22;7165;52.388;4.928;2022-10-12T02:09:51;8.80;99.90
14172;DHT22;7165;52.388;4.928;2022-10-12T02:12:22;8.80;99.90
14172;DHT22;7165;52.388;4.928;2022-10-12T02:14:52;8.80;99.90
14172;DHT22;7165;52.388;4.928;2022-10-12T02:17:22;8.80;99.90
14172;DHT22;7165;52.388;4.928;2022-10-12T02:19:52;8.70;99.90
14172;DHT22;7165;52.388;4.928;2022-10-12T02:22:22;8.70;99.90
14172;DHT22;7165;52.388;4.928;2022-10-12T02:24:52;8.70;99.90
14172;DHT22;7165;52.388;4.928;2022-10-12T02:27:21;8.70;99.90
14172;DHT22;7165;52.388;4.928;2022-10-12T02:29:49;8.70;99.90
14172;DHT22;7165;52.388;4.928;2022-10-12T02:32:21;8.70;99.90
14172;DHT22;7165;52.388;4.928;2022-10-12T02:34:54;8.70;99.90
14172;DHT22;7165;52.388;4.928;2022-10-12T02:37:29;8.60;99.90
14172;DHT22;7165;52.388;4.928;2022-10-12T02:40:01;8.60;99.90
14172;DHT22;7165;52.388;4.928;2022-10-12T02:42:32;8.60;99.90
14172;DHT22;7165;52.388;4.928;2022-10-12T02:45:02;8.60;99.90
14172;DHT22;7165;52.388;4.928;2022-10-12T02:47:33;8.60;99.90
14172;DHT22;7165;52.388;4.928;2022-10-12T02:50:01;8.60;99.90
14172;DHT22;7165;52.388;4.928;2022-10-12T02:52:30;8.60;99.90
14172;DHT22;7165;52.388;4.928;2022-10-12T02:54:57;8.60;99.90
14172;DHT22;7165;52.388;4.928;2022-10-12T02:57:24;8.50;99.90
14172;DHT22;7165;52.388;4.928;2022-10-12T02:59:51;8.50;99.90
14172;DHT22;7165;52.388;4.928;2022-10-12T03:02:17;8.50;99.90
14172;DHT22;7165;52.388;4.928;2022-10-12T03:04:45;8.50;99.90
14172;DHT22;7165;52.388;4.928;2022-10-12T03:07:12;8.40;99.90
14172;DHT22;7165;52.388;4.928;2022-10-12T03:09:39;8.40;99.90
14172;DHT22;7165;52.388;4.928;2022-10-12T03:12:06;8.40;99.90
14172;DHT22;7165;52.388;4.928;2022-10-12T03:14:32;8.40;99.90
14172;DHT22;7165;52.388;4.928;2022-10-12T03:17:01;8.40;99.90
14172;DHT22;7165;52.388;4.928;2022-10-12T03:19:28;8.30;99.90
14172;DHT22;7165;52.388;4.928;2022-10-12T03:21:56;8.30;99.90
14172;DHT22;7165;52.388;4.928;2022-10-12T03:24:23;8.30;99.90
14172;DHT22;7165;52.388;4.928;2022-10-12T03:26:50;8.20;99.90
14172;DHT22;7165;52.388;4.928;2022-10-12T03:29:16;8.20;99.90
14172;DHT22;7165;52.388;4.928;2022-10-12T03:31:43;8.20;99.90
14172;DHT22;7165;52.388;4.928;2022-10-12T03:34:10;8.20;99.90
14172;DHT22;7165;52.388;4.928;2022-10-12T03:36:36;8.20;99.90
14172;DHT22;7165;52.388;4.928;2022-10-12T03:39:04;8.20;99.90
14172;DHT22;7165;52.388;4.928;2022-10-12T03:41:31;8.10;99.90
14172;DHT22;7165;52.388;4.928;2022-10-12T03:43:58;8.20;99.90
14172;DHT22;7165;52.388;4.928;2022-10-12T03:46:24;8.10;99.90
14172;DHT22;7165;52.388;4.928;2022-10-12T03:48:51;8.10;99.90
14172;DHT22;7165;52.388;4.928;2022-10-12T03:51:18;8.10;99.90
14172;DHT22;7165;52.388;4.928;2022-10-12T03:53:44;8.10;99.90
14172;DHT22;7165;52.388;4.928;2022-10-12T03:56:12;8.10;99.90
14172;DHT22;7165;52.388;4.928;2022-10-12T03:58:39;8.20;99.90
14172;DHT22;7165;52.388;4.928;2022-10-12T04:01:06;8.30;99.90
14172;DHT22;7165;52.388;4.928;2022-10-12T04:03:32;8.40;99.90
14172;DHT22;7165;52.388;4.928;2022-10-12T04:05:59;8.50;99.90
14172;DHT22;7165;52.388;4.928;2022-10-12T04:08:26;8.60;99.90
14172;DHT22;7165;52.388;4.928;2022-10-12T04:10:52;8.70;99.90
14172;DHT22;7165;52.388;4.928;2022-10-12T04:13:20;8.80;99.90
14172;DHT22;7165;52.388;4.928;2022-10-12T04:15:47;8.90;99.90
14172;DHT22;7165;52.388;4.928;2022-10-12T04:18:14;8.90;99.90
14172;DHT22;7165;52.388;4.928;2022-10-12T04:20:41;9.00;99.90
14172;DHT22;7165;52.388;4.928;2022-10-12T04:23:07;9.00;99.90
14172;DHT22;7165;52.388;4.928;2022-10-12T04:25:34;9.00;99.90
14172;DHT22;7165;52.388;4.928;2022-10-12T04:28:01;9.00;99.90
14172;DHT22;7165;52.388;4.928;2022-10-12T04:30:29;9.00;99.90
14172;DHT22;7165;52.388;4.928;2022-10-12T04:32:57;9.00;99.90
14172;DHT22;7165;52.388;4.928;2022-10-12T04:35:24;9.00;99.90
14172;DHT22;7165;52.388;4.928;2022-10-12T04:37:50;9.10;99.90
14172;DHT22;7165;52.388;4.928;2022-10-12T04:40:17;9.10;99.90
14172;DHT22;7165;52.388;4.928;2022-10-12T04:42:44;9.10;99.90
14172;DHT22;7165;52.388;4.928;2022-10-12T04:45:10;9.10;99.90
14172;DHT22;7165;52.388;4.928;2022-10-12T04:47:38;9.10;99.90
14172;DHT22;7165;52.388;4.928;2022-10-12T04:50:06;9.10;99.90
14172;DHT22;7165;52.388;4.928;2022-10-12T04:52:33;9.10;99.90
14172;DHT22;7165;52.388;4.928;2022-10-12T04:55:00;9.00;99.90
14172;DHT22;7165;52.388;4.928;2022-10-12T04:57:26;9.00;99.90
14172;DHT22;7165;52.388;4.928;2022-10-12T04:59:53;8.90;99.90
14172;DHT22;7165;52.388;4.928;2022-10-12T05:02:20;8.90;99.90
14172;DHT22;7165;52.388;4.928;2022-10-12T05:04:48;8.80;99.90
14172;DHT22;7165;52.388;4.928;2022-10-12T05:07:14;8.80;99.90
14172;DHT22;7165;52.388;4.928;2022-10-12T05:09:42;8.70;99.90
14172;DHT22;7165;52.388;4.928;2022-10-12T05:12:09;8.80;99.90
14172;DHT22;7165;52.388;4.928;2022-10-12T05:14:36;8.70;99.90
14172;DHT22;7165;52.388;4.928;2022-10-12T05:17:03;8.80;99.90
14172;DHT22;7165;52.388;4.928;2022-10-12T05:19:29;8.80;99.90
14172;DHT22;7165;52.388;4.928;2022-10-12T05:21:57;8.80;99.90
14172;DHT22;7165;52.388;4.928;2022-10-12T05:24:24;8.80;99.90
14172;DHT22;7165;52.388;4.928;2022-10-12T05:26:51;8.80;99.90
14172;DHT22;7165;52.388;4.928;2022-10-12T05:29:18;8.80;99.90
14172;DHT22;7165;52.388;4.928;2022-10-12T05:31:44;8.90;99.90
14172;DHT22;7165;52.388;4.928;2022-10-12T05:34:11;8.90;99.90
14172;DHT22;7165;52.388;4.928;2022-10-12T05:36:38;8.90;99.90
14172;DHT22;7165;52.388;4.928;2022-10-12T05:39:06;8.90;99.90
14172;DHT22;7165;52.388;4.928;2022-10-12T05:41:33;9.00;99.90
14172;DHT22;7165;52.388;4.928;2022-10-12T05:43:59;9.00;99.90
14172;DHT22;7165;52.388;4.928;2022-10-12T05:46:26;9.00;99.90
14172;DHT22;7165;52.388;4.928;2022-10-12T05:48:53;9.00;99.90
14172;DHT22;7165;52.388;4.928;2022-10-12T05:51:19;9.00;99.90
14172;DHT22;7165;52.388;4.928;2022-10-12T05:53:46;9.00;99.90
14172;DHT22;7165;52.388;4.928;2022-10-12T05:56:14;9.00;99.90
14172;DHT22;7165;52.388;4.928;2022-10-12T05:58:41;9.00;99.90
14172;DHT22;7165;52.388;4.928;2022-10-12T06:01:09;9.00;99.90
14172;DHT22;7165;52.388;4.928;2022-10-12T06:03:36;8.90;99.90
14172;DHT22;7165;52.388;4.928;2022-10-12T06:06:04;8.90;99.90
14172;DHT22;7165;52.388;4.928;2022-10-12T06:08:31;8.90;99.90
14172;DHT22;7165;52.388;4.928;2022-10-12T06:10:58;8.90;99.90
14172;DHT22;7165;52.388;4.928;2022-10-12T06:13:26;8.80;99.90
14172;DHT22;7165;52.388;4.928;2022-10-12T06:15:53;8.80;99.90
14172;DHT22;7165;52.388;4.928;2022-10-12T06:18:20;8.70;99.90
14172;DHT22;7165;52.388;4.928;2022-10-12T06:20:47;8.70;99.90
14172;DHT22;7165;52.388;4.928;2022-10-12T06:23:15;8.60;99.90
14172;DHT22;7165;52.388;4.928;2022-10-12T06:25:44;8.60;99.90
14172;DHT22;7165;52.388;4.928;2022-10-12T06:28:11;8.60;99.90
14172;DHT22;7165;52.388;4.928;2022-10-12T06:30:39;8.60;99.90
14172;DHT22;7165;52.388;4.928;2022-10-12T06:33:05;8.50;99.90
14172;DHT22;7165;52.388;4.928;2022-10-12T06:35:33;8.50;99.90
14172;DHT22;7165;52.388;4.928;2022-10-12T06:37:59;8.50;99.90
14172;DHT22;7165;52.388;4.928;2022-10-12T06:40:26;8.50;99.90
14172;DHT22;7165;52.388;4.928;2022-10-12T06:42:53;8.50;99.90
14172;DHT22;7165;52.388;4.928;2022-10-12T06:45:20;8.50;99.90
14172;DHT22;7165;52.388;4.928;2022-10-12T06:47:48;8.50;99.90
14172;DHT22;7165;52.388;4.928;2022-10-12T06:50:14;8.50;99.90
14172;DHT22;7165;52.388;4.928;2022-10-12T06:52:41;8.50;99.90
14172;DHT22;7165;52.388;4.928;2022-10-12T06:55:09;8.60;99.90
14172;DHT22;7165;52.388;4.928;2022-10-12T06:57:36;8.60;99.90
14172;DHT22;7165;52.388;4.928;2022-10-12T07:00:05;8.60;99.90
14172;DHT22;7165;52.388;4.928;2022-10-12T07:02:32;8.70;99.90
14172;DHT22;7165;52.388;4.928;2022-10-12T07:05:00;8.80;99.90
14172;DHT22;7165;52.388;4.928;2022-10-12T07:07:28;8.80;99.90
14172;DHT22;7165;52.388;4.928;2022-10-12T07:09:55;9.00;99.90
14172;DHT22;7165;52.388;4.928;2022-10-12T07:12:22;9.10;99.90
14172;DHT22;7165;52.388;4.928;2022-10-12T07:14:48;9.20;99.90
14172;DHT22;7165;52.388;4.928;2022-10-12T07:17:15;9.30;99.90
14172;DHT22;7165;52.388;4.928;2022-10-12T07:19:42;9.40;99.90
14172;DHT22;7165;52.388;4.928;2022-10-12T07:22:10;9.50;99.90
14172;DHT22;7165;52.388;4.928;2022-10-12T07:24:39;9.50;99.90
14172;DHT22;7165;52.388;4.928;2022-10-12T07:27:08;9.60;99.90
14172;DHT22;7165;52.388;4.928;2022-10-12T07:29:36;9.70;99.90
14172;DHT22;7165;52.388;4.928;2022-10-12T07:32:05;9.80;99.90
14172;DHT22;7165;52.388;4.928;2022-10-12T07:34:32;9.90;99.90
14172;DHT22;7165;52.388;4.928;2022-10-12T07:36:59;9.90;99.90
14172;DHT22;7165;52.388;4.928;2022-10-12T07:39:27;10.00;99.90
14172;DHT22;7165;52.388;4.928;2022-10-12T07:41:53;10.00;99.90
14172;DHT22;7165;52.388;4.928;2022-10-12T07:44:20;10.10;99.90
14172;DHT22;7165;52.388;4.928;2022-10-12T07:46:48;10.10;99.90
14172;DHT22;7165;52.388;4.928;2022-10-12T07:49:16;10.20;99.90
14172;DHT22;7165;52.388;4.928;2022-10-12T07:51:43;10.20;99.90
14172;DHT22;7165;52.388;4.928;2022-10-12T07:54:10;10.30;99.90
14172;DHT22;7165;52.388;4.928;2022-10-12T07:56:40;10.30;99.90
14172;DHT22;7165;52.388;4.928;2022-10-12T07:59:07;10.30;99.90
14172;DHT22;7165;52.388;4.928;2022-10-12T08:01:33;10.30;99.90
14172;DHT22;7165;52.388;4.928;2022-10-12T08:04:00;10.40;99.90
14172;DHT22;7165;52.388;4.928;2022-10-12T08:06:29;10.50;99.90
14172;DHT22;7165;52.388;4.928;2022-10-12T08:08:57;10.60;99.90
14172;DHT22;7165;52.388;4.928;2022-10-12T08:11:24;10.70;99.90
14172;DHT22;7165;52.388;4.928;2022-10-12T08:13:52;10.80;99.90
14172;DHT22;7165;52.388;4.928;2022-10-12T08:16:20;11.00;99.90
14172;DHT22;7165;52.388;4.928;2022-10-12T08:18:47;11.10;99.90
14172;DHT22;7165;52.388;4.928;2022-10-12T08:21:15;11.20;99.90
14172;DHT22;7165;52.388;4.928;2022-10-12T08:23:42;11.30;99.90
14172;DHT22;7165;52.388;4.928;2022-10-12T08:26:10;11.40;99.90
14172;DHT22;7165;52.388;4.928;2022-10-12T08:28:37;11.40;99.90
14172;DHT22;7165;52.388;4.928;2022-10-12T08:31:08;11.50;99.90
14172;DHT22;7165;52.388;4.928;2022-10-12T08:33:36;11.60;99.90
14172;DHT22;7165;52.388;4.928;2022-10-12T08:36:04;11.80;99.90
14172;DHT22;7165;52.388;4.928;2022-10-12T08:38:31;11.80;99.90
14172;DHT22;7165;52.388;4.928;2022-10-12T08:41:06;11.90;99.90
14172;DHT22;7165;52.388;4.928;2022-10-12T08:43:51;12.00;99.90
14172;DHT22;7165;52.388;4.928;2022-10-12T08:46:23;12.10;99.90
14172;DHT22;7165;52.388;4.928;2022-10-12T08:48:55;12.20;99.90
14172;DHT22;7165;52.388;4.928;2022-10-12T08:51:26;12.40;99.90
14172;DHT22;7165;52.388;4.928;2022-10-12T08:53:56;12.60;99.90
14172;DHT22;7165;52.388;4.928;2022-10-12T08:56:24;12.70;99.90
14172;DHT22;7165;52.388;4.928;2022-10-12T08:58:52;12.80;99.90
14172;DHT22;7165;52.388;4.928;2022-10-12T09:01:26;12.90;99.90
14172;DHT22;7165;52.388;4.928;2022-10-12T09:04:04;13.10;99.90
14172;DHT22;7165;52.388;4.928;2022-10-12T09:06:39;13.20;99.90
14172;DHT22;7165;52.388;4.928;2022-10-12T09:09:30;13.30;99.90
14172;DHT22;7165;52.388;4.928;2022-10-12T09:12:02;13.40;99.90
14172;DHT22;7165;52.388;4.928;2022-10-12T09:14:31;13.50;99.90
14172;DHT22;7165;52.388;4.928;2022-10-12T09:17:00;13.60;99.90
14172;DHT22;7165;52.388;4.928;2022-10-12T09:19:28;13.70;99.90
14172;DHT22;7165;52.388;4.928;2022-10-12T09:21:56;13.80;99.90
14172;DHT22;7165;52.388;4.928;2022-10-12T09:24:24;13.90;99.90
14172;DHT22;7165;52.388;4.928;2022-10-12T09:26:52;14.00;99.90
14172;DHT22;7165;52.388;4.928;2022-10-12T09:29:22;14.10;99.90
14172;DHT22;7165;52.388;4.928;2022-10-12T09:32:03;14.20;99.90
14172;DHT22;7165;52.388;4.928;2022-10-12T09:34:36;14.30;99.90
14172;DHT22;7165;52.388;4.928;2022-10-12T09:37:03;14.40;99.90
14172;DHT22;7165;52.388;4.928;2022-10-12T09:39:33;14.50;99.90
14172;DHT22;7165;52.388;4.928;2022-10-12T09:42:00;14.60;99.90
14172;DHT22;7165;52.388;4.928;2022-10-12T09:44:30;14.70;99.90
14172;DHT22;7165;52.388;4.928;2022-10-12T09:46:59;14.70;99.90
14172;DHT22;7165;52.388;4.928;2022-10-12T09:49:40;14.90;99.90
14172;DHT22;7165;52.388;4.928;2022-10-12T09:52:07;14.90;99.90
14172;DHT22;7165;52.388;4.928;2022-10-12T09:54:34;14.90;99.90
14172;DHT22;7165;52.388;4.928;2022-10-12T09:57:05;14.90;99.90
14172;DHT22;7165;52.388;4.928;2022-10-12T09:59:36;14.90;99.90
14172;DHT22;7165;52.388;4.928;2022-10-12T10:02:13;15.00;99.90
14172;DHT22;7165;52.388;4.928;2022-10-12T10:04:43;15.10;99.90
14172;DHT22;7165;52.388;4.928;2022-10-12T10:07:24;15.20;99.90
14172;DHT22;7165;52.388;4.928;2022-10-12T10:10:13;15.30;99.90
14172;DHT22;7165;52.388;4.928;2022-10-12T10:12:46;15.40;99.90
14172;DHT22;7165;52.388;4.928;2022-10-12T10:15:19;15.50;99.90
14172;DHT22;7165;52.388;4.928;2022-10-12T10:17:48;15.60;99.90
14172;DHT22;7165;52.388;4.928;2022-10-12T10:20:28;15.70;99.90
14172;DHT22;7165;52.388;4.928;2022-10-12T10:22:56;15.80;99.90
14172;DHT22;7165;52.388;4.928;2022-10-12T10:25:24;15.80;99.90
14172;DHT22;7165;52.388;4.928;2022-10-12T10:30:32;15.90;99.90
14172;DHT22;7165;52.388;4.928;2022-10-12T10:33:12;15.90;99.90
14172;DHT22;7165;52.388;4.928;2022-10-12T10:35:42;15.90;99.90
14172;DHT22;7165;52.388;4.928;2022-10-12T10:38:17;16.00;99.90
14172;DHT22;7165;52.388;4.928;2022-10-12T10:40:48;16.10;99.90
14172;DHT22;7165;52.388;4.928;2022-10-12T10:43:17;16.10;99.90
14172;DHT22;7165;52.388;4.928;2022-10-12T10:45:49;16.10;99.90
14172;DHT22;7165;52.388;4.928;2022-10-12T10:48:19;16.10;99.90
14172;DHT22;7165;52.388;4.928;2022-10-12T10:50:52;16.10;99.90
14172;DHT22;7165;52.388;4.928;2022-10-12T10:53:23;16.10;99.90
14172;DHT22;7165;52.388;4.928;2022-10-12T10:55:53;16.20;99.90
14172;DHT22;7165;52.388;4.928;2022-10-12T10:58:26;16.10;99.90
14172;DHT22;7165;52.388;4.928;2022-10-12T11:00:59;16.10;99.90
14172;DHT22;7165;52.388;4.928;2022-10-12T11:03:32;16.10;99.90
14172;DHT22;7165;52.388;4.928;2022-10-12T11:06:08;16.20;99.90
14172;DHT22;7165;52.388;4.928;2022-10-12T11:08:42;16.30;99.90
14172;DHT22;7165;52.388;4.928;2022-10-12T11:11:12;16.40;99.90
14172;DHT22;7165;52.388;4.928;2022-10-12T11:13:43;16.60;99.90
14172;DHT22;7165;52.388;4.928;2022-10-12T11:16:23;16.60;99.90
14172;DHT22;7165;52.388;4.928;2022-10-12T11:18:53;16.60;99.90
14172;DHT22;7165;52.388;4.928;2022-10-12T11:21:25;16.50;99.90
14172;DHT22;7165;52.388;4.928;2022-10-12T11:24:00;16.60;99.90
14172;DHT22;7165;52.388;4.928;2022-10-12T11:26:30;16.60;99.90
14172;DHT22;7165;52.388;4.928;2022-10-12T11:28:59;16.40;99.90
14172;DHT22;7165;52.388;4.928;2022-10-12T11:31:27;16.30;99.90
14172;DHT22;7165;52.388;4.928;2022-10-12T11:33:55;16.10;99.90
14172;DHT22;7165;52.388;4.928;2022-10-12T11:36:25;15.90;99.90
14172;DHT22;7165;52.388;4.928;2022-10-12T11:38:56;15.80;99.90
14172;DHT22;7165;52.388;4.928;2022-10-12T11:41:30;15.80;99.90
14172;DHT22;7165;52.388;4.928;2022-10-12T11:44:02;15.80;99.90
14172;DHT22;7165;52.388;4.928;2022-10-12T11:46:33;15.80;99.90
14172;DHT22;7165;52.388;4.928;2022-10-12T11:49:05;15.80;99.90
14172;DHT22;7165;52.388;4.928;2022-10-12T11:51:34;15.80;99.90
14172;DHT22;7165;52.388;4.928;2022-10-12T11:54:04;15.90;99.90
14172;DHT22;7165;52.388;4.928;2022-10-12T11:56:35;16.00;99.90
14172;DHT22;7165;52.388;4.928;2022-10-12T11:59:09;16.10;99.90
14172;DHT22;7165;52.388;4.928;2022-10-12T12:01:59;16.20;99.90
14172;DHT22;7165;52.388;4.928;2022-10-12T12:04:29;16.20;99.90
14172;DHT22;7165;52.388;4.928;2022-10-12T12:07:00;16.20;99.90
14172;DHT22;7165;52.388;4.928;2022-10-12T12:09:39;16.20;99.90
14172;DHT22;7165;52.388;4.928;2022-10-12T12:12:09;16.40;99.90
14172;DHT22;7165;52.388;4.928;2022-10-12T12:14:45;16.40;99.90
14172;DHT22;7165;52.388;4.928;2022-10-12T12:17:20;16.50;99.90
14172;DHT22;7165;52.388;4.928;2022-10-12T12:19:48;16.40;99.90
14172;DHT22;7165;52.388;4.928;2022-10-12T12:22:26;16.40;99.90
14172;DHT22;7165;52.388;4.928;2022-10-12T12:24:54;16.50;99.90
14172;DHT22;7165;52.388;4.928;2022-10-12T12:27:23;16.50;99.90
14172;DHT22;7165;52.388;4.928;2022-10-12T12:29:53;16.50;99.90
14172;DHT22;7165;52.388;4.928;2022-10-12T12:32:19;16.50;99.90
14172;DHT22;7165;52.388;4.928;2022-10-12T12:34:48;16.60;99.90
14172;DHT22;7165;52.388;4.928;2022-10-12T12:37:19;16.80;99.90
14172;DHT22;7165;52.388;4.928;2022-10-12T12:39:53;17.00;99.90
14172;DHT22;7165;52.388;4.928;2022-10-12T12:42:23;17.20;99.90
14172;DHT22;7165;52.388;4.928;2022-10-12T12:44:50;17.20;99.90
14172;DHT22;7165;52.388;4.928;2022-10-12T12:47:36;17.10;99.90
14172;DHT22;7165;52.388;4.928;2022-10-12T12:50:29;17.10;99.90
14172;DHT22;7165;52.388;4.928;2022-10-12T12:53:04;17.10;99.90
14172;DHT22;7165;52.388;4.928;2022-10-12T12:55:58;17.20;99.90
14172;DHT22;7165;52.388;4.928;2022-10-12T12:58:42;17.20;99.90
14172;DHT22;7165;52.388;4.928;2022-10-12T13:01:31;17.10;99.90
14172;DHT22;7165;52.388;4.928;2022-10-12T13:04:27;16.90;99.90
14172;DHT22;7165;52.388;4.928;2022-10-12T13:07:25;16.80;99.90
14172;DHT22;7165;52.388;4.928;2022-10-12T13:10:03;16.70;99.90
14172;DHT22;7165;52.388;4.928;2022-10-12T13:15:26;16.50;99.90
14172;DHT22;7165;52.388;4.928;2022-10-12T13:18:09;16.50;99.90
14172;DHT22;7165;52.388;4.928;2022-10-12T13:20:45;16.40;99.90
14172;DHT22;7165;52.388;4.928;2022-10-12T13:23:16;16.30;99.90
14172;DHT22;7165;52.388;4.928;2022-10-12T13:25:47;16.30;99.90
14172;DHT22;7165;52.388;4.928;2022-10-12T13:28:19;16.30;99.90
14172;DHT22;7165;52.388;4.928;2022-10-12T13:30:51;16.40;99.90
14172;DHT22;7165;52.388;4.928;2022-10-12T13:33:23;16.40;99.90
14172;DHT22;7165;52.388;4.928;2022-10-12T13:35:58;16.50;99.90
14172;DHT22;7165;52.388;4.928;2022-10-12T13:38:28;16.40;99.90
14172;DHT22;7165;52.388;4.928;2022-10-12T13:41:05;16.40;99.90
14172;DHT22;7165;52.388;4.928;2022-10-12T13:43:39;16.40;99.90
14172;DHT22;7165;52.388;4.928;2022-10-12T13:46:10;16.40;99.90
14172;DHT22;7165;52.388;4.928;2022-10-12T13:48:37;16.60;99.90
14172;DHT22;7165;52.388;4.928;2022-10-12T13:51:20;16.80;99.90
14172;DHT22;7165;52.388;4.928;2022-10-12T13:53:47;16.90;99.90
14172;DHT22;7165;52.388;4.928;2022-10-12T13:56:16;17.10;99.90
14172;DHT22;7165;52.388;4.928;2022-10-12T13:58:45;17.20;99.90
14172;DHT22;7165;52.388;4.928;2022-10-12T14:01:12;17.30;99.90
14172;DHT22;7165;52.388;4.928;2022-10-12T14:03:41;17.20;99.90
14172;DHT22;7165;52.388;4.928;2022-10-12T14:06:23;17.00;99.90
14172;DHT22;7165;52.388;4.928;2022-10-12T14:08:51;16.80;99.90
14172;DHT22;7165;52.388;4.928;2022-10-12T14:11:19;16.70;99.90
14172;DHT22;7165;52.388;4.928;2022-10-12T14:13:48;16.40;99.90
14172;DHT22;7165;52.388;4.928;2022-10-12T14:16:16;16.20;99.90
14172;DHT22;7165;52.388;4.928;2022-10-12T14:18:44;16.10;99.90
14172;DHT22;7165;52.388;4.928;2022-10-12T14:21:16;16.00;99.90
14172;DHT22;7165;52.388;4.928;2022-10-12T14:23:45;16.00;99.90
14172;DHT22;7165;52.388;4.928;2022-10-12T14:26:26;15.90;99.90
14172;DHT22;7165;52.388;4.928;2022-10-12T14:28:58;15.90;99.90
14172;DHT22;7165;52.388;4.928;2022-10-12T14:31:50;16.00;99.90
14172;DHT22;7165;52.388;4.928;2022-10-12T14:34:40;16.00;99.90
14172;DHT22;7165;52.388;4.928;2022-10-12T14:37:22;15.90;99.90
14172;DHT22;7165;52.388;4.928;2022-10-12T14:39:50;15.80;99.90
14172;DHT22;7165;52.388;4.928;2022-10-12T14:42:30;15.80;99.90
14172;DHT22;7165;52.388;4.928;2022-10-12T14:44:59;15.80;99.90
14172;DHT22;7165;52.388;4.928;2022-10-12T14:47:27;15.70;99.90
14172;DHT22;7165;52.388;4.928;2022-10-12T14:49:56;15.70;99.90
14172;DHT22;7165;52.388;4.928;2022-10-12T14:52:26;15.60;99.90
14172;DHT22;7165;52.388;4.928;2022-10-12T14:54:55;15.50;99.90
14172;DHT22;7165;52.388;4.928;2022-10-12T14:57:23;15.50;99.90
14172;DHT22;7165;52.388;4.928;2022-10-12T14:59:50;15.40;99.90
14172;DHT22;7165;52.388;4.928;2022-10-12T15:02:20;15.40;99.90
14172;DHT22;7165;52.388;4.928;2022-10-12T15:04:47;15.30;99.90
14172;DHT22;7165;52.388;4.928;2022-10-12T15:07:16;15.30;99.90
14172;DHT22;7165;52.388;4.928;2022-10-12T15:09:43;15.30;99.90
14172;DHT22;7165;52.388;4.928;2022-10-12T15:12:12;15.30;99.90
14172;DHT22;7165;52.388;4.928;2022-10-12T15:14:39;15.30;99.90
14172;DHT22;7165;52.388;4.928;2022-10-12T15:17:07;15.30;99.90
14172;DHT22;7165;52.388;4.928;2022-10-12T15:19:37;15.30;99.90
14172;DHT22;7165;52.388;4.928;2022-10-12T15:22:04;15.40;99.90
14172;DHT22;7165;52.388;4.928;2022-10-12T15:24:30;15.40;99.90
14172;DHT22;7165;52.388;4.928;2022-10-12T15:26:57;15.40;99.90
14172;DHT22;7165;52.388;4.928;2022-10-12T15:29:24;15.50;99.90
14172;DHT22;7165;52.388;4.928;2022-10-12T15:31:50;15.50;99.90
14172;DHT22;7165;52.388;4.928;2022-10-12T15:34:17;15.50;99.90
14172;DHT22;7165;52.388;4.928;2022-10-12T15:36:45;15.60;99.90
14172;DHT22;7165;52.388;4.928;2022-10-12T15:39:14;15.60;99.90
14172;DHT22;7165;52.388;4.928;2022-10-12T15:41:40;15.60;99.90
14172;DHT22;7165;52.388;4.928;2022-10-12T15:44:09;15.60;99.90
14172;DHT22;7165;52.388;4.928;2022-10-12T15:46:36;15.60;99.90
14172;DHT22;7165;52.388;4.928;2022-10-12T15:49:03;15.50;99.90
14172;DHT22;7165;52.388;4.928;2022-10-12T15:51:31;15.50;99.90
14172;DHT22;7165;52.388;4.928;2022-10-12T15:54:00;15.40;99.90
14172;DHT22;7165;52.388;4.928;2022-10-12T15:56:27;15.30;99.90
14172;DHT22;7165;52.388;4.928;2022-10-12T15:58:54;15.30;99.90
14172;DHT22;7165;52.388;4.928;2022-10-12T16:01:21;15.20;99.90
14172;DHT22;7165;52.388;4.928;2022-10-12T16:03:48;15.20;99.90
14172;DHT22;7165;52.388;4.928;2022-10-12T16:06:15;15.20;99.90
14172;DHT22;7165;52.388;4.928;2022-10-12T16:08:42;15.20;99.90
14172;DHT22;7165;52.388;4.928;2022-10-12T16:11:11;15.30;99.90
14172;DHT22;7165;52.388;4.928;2022-10-12T16:13:39;15.30;99.90
14172;DHT22;7165;52.388;4.928;2022-10-12T16:16:06;15.30;99.90
14172;DHT22;7165;52.388;4.928;2022-10-12T16:18:33;15.30;99.90
14172;DHT22;7165;52.388;4.928;2022-10-12T16:21:00;15.30;99.90